Time;durP1;ratioP1;P1;durP2;ratioP2;P2;SDS_P1;SDS_P2;PMS_P1;PMS_P2;Temp;Humidity;BMP_temperature;BMP_pressure;BME280_temperature;BME280_humidity;BME280_pressure;Samples;Min_cycle;Max_cycle;Signal;HPM_P1;HPM_P2
2021/07/25 00:02:23;;;;;;;8.07;5.20;;;;;;;22.65;54.42;99938.09;5015864;28;20349;-68
2021/07/25 00:04:48;;;;;;;9.50;5.25;;;;;;;22.68;54.16;99943.03;5032587;28;20034;-68
2021/07/25 00:07:14;;;;;;;11.25;5.00;;;;;;;22.71;54.05;99941.75;5038450;28;20038;-68
2021/07/25 00:09:39;;;;;;;10.48;5.10;;;;;;;22.61;54.00;99942.34;5032331;28;20033;-68
2021/07/25 00:12:05;;;;;;;13.15;5.43;;;;;;;22.31;55.17;99953.25;5032767;28;20033;-68
2021/07/25 00:14:31;;;;;;;8.80;5.03;;;;;;;21.54;57.38;99955.81;5033125;28;20048;-68
2021/07/25 00:16:56;;;;;;;8.98;4.90;;;;;;;21.86;56.78;99952.91;5033174;28;20026;-68
2021/07/25 00:19:21;;;;;;;8.80;4.90;;;;;;;21.93;56.43;99951.75;5038382;28;20049;-68
2021/07/25 00:21:47;;;;;;;8.93;4.60;;;;;;;22.14;55.33;99945.00;5033693;28;20375;-68
2021/07/25 00:24:13;;;;;;;10.70;4.65;;;;;;;22.05;56.27;99948.28;5037430;28;20342;-68
2021/07/25 00:26:45;;;;;;;12.40;4.97;;;;;;;22.04;55.80;99958.25;5032605;28;20038;-68
2021/07/25 00:29:10;;;;;;;18.75;5.50;;;;;;;21.97;56.49;99960.19;5035233;28;20327;-68
2021/07/25 00:31:37;;;;;;;13.13;6.00;;;;;;;21.60;57.58;99960.28;5020508;28;20293;-68
2021/07/25 00:34:03;;;;;;;15.68;5.72;;;;;;;21.90;57.16;99965.69;5034802;28;20343;-68
2021/07/25 00:36:28;;;;;;;10.68;5.63;;;;;;;21.76;57.27;99966.09;5031589;28;20036;-68
2021/07/25 00:38:54;;;;;;;11.98;5.65;;;;;;;21.70;57.46;99954.34;5037418;28;20056;-68
2021/07/25 00:41:19;;;;;;;15.93;5.40;;;;;;;21.66;57.97;99964.75;5033372;28;20033;-68
2021/07/25 00:43:46;;;;;;;13.85;5.55;;;;;;;21.68;57.86;99967.22;5032167;28;20060;-68
2021/07/25 00:46:13;;;;;;;13.77;5.43;;;;;;;21.61;58.18;99963.81;5030748;28;20053;-68
2021/07/25 00:48:39;;;;;;;12.10;5.57;;;;;;;21.37;58.42;99957.50;5020523;28;20073;-68
2021/07/25 00:51:05;;;;;;;13.02;5.82;;;;;;;21.56;57.84;99959.09;5031880;28;20211;-68
2021/07/25 00:53:36;;;;;;;11.93;5.75;;;;;;;21.63;57.82;99961.69;5020436;28;20029;-68
2021/07/25 00:56:08;;;;;;;12.00;5.10;;;;;;;21.88;57.11;99962.41;5036906;28;20041;-68
2021/07/25 00:58:39;;;;;;;11.18;5.65;;;;;;;21.98;56.69;99943.78;5036617;28;20036;-68
2021/07/25 01:01:06;;;;;;;7.93;4.93;;;;;;;22.16;56.62;99940.22;5034683;28;20104;-68
2021/07/25 01:03:56;;;;;;;20.65;5.13;;;;;;;22.33;56.03;99942.22;5035103;28;20033;-68
2021/07/25 01:06:33;;;;;;;15.65;5.32;;;;;;;22.34;55.92;99955.47;5022349;28;20105;-68
2021/07/25 01:09:04;;;;;;;8.75;5.18;;;;;;;22.03;56.45;99955.78;5032864;28;20054;-68
2021/07/25 01:11:46;;;;;;;16.02;5.97;;;;;;;21.80;57.19;99962.69;5035517;28;20139;-68
2021/07/25 01:14:19;;;;;;;12.32;6.00;;;;;;;21.91;56.46;99953.03;5035286;28;20128;-68
2021/07/25 01:16:44;;;;;;;14.57;6.10;;;;;;;21.76;57.29;99948.03;5030434;28;20052;-68
2021/07/25 01:19:10;;;;;;;12.88;5.93;;;;;;;21.66;57.43;99958.56;5030758;28;20307;-68
2021/07/25 01:21:35;;;;;;;12.30;5.70;;;;;;;21.93;56.14;99954.44;5037208;28;20049;-68
2021/07/25 01:24:01;;;;;;;14.25;5.43;;;;;;;22.12;55.54;99949.00;5038009;28;20076;-68
2021/07/25 01:26:29;;;;;;;10.65;5.65;;;;;;;22.12;55.53;99954.41;5020585;28;20045;-68
2021/07/25 01:28:58;;;;;;;11.32;5.72;;;;;;;21.84;56.57;99957.66;5031134;28;20033;-68
2021/07/25 01:31:37;;;;;;;13.80;6.45;;;;;;;21.79;56.82;99962.94;5031371;28;20033;-68
2021/07/25 01:34:04;;;;;;;12.63;5.55;;;;;;;21.92;56.32;99951.97;5026321;28;20101;-68
2021/07/25 01:36:30;;;;;;;7.95;5.75;;;;;;;22.02;57.86;99959.50;5038301;28;20033;-68
2021/07/25 01:38:56;;;;;;;9.70;5.97;;;;;;;22.04;56.08;99946.63;5038322;28;20025;-68
2021/07/25 01:41:21;;;;;;;8.10;5.63;;;;;;;21.86;56.48;99953.72;5014721;28;20215;-68
2021/07/25 01:43:49;;;;;;;11.88;5.95;;;;;;;21.50;57.55;99965.41;5032037;28;20048;-68
2021/07/25 01:46:16;;;;;;;12.18;6.30;;;;;;;21.32;58.50;99965.44;5032302;28;20056;-68
2021/07/25 01:48:42;;;;;;;10.60;5.68;;;;;;;21.40;58.24;99969.69;5035655;28;20105;-68
2021/07/25 01:51:09;;;;;;;10.60;5.57;;;;;;;21.24;57.96;99933.44;5041468;28;20041;-68
2021/07/25 01:53:35;;;;;;;8.43;5.68;;;;;;;21.48;57.66;99972.06;5014433;28;20298;-68
2021/07/25 01:56:00;;;;;;;23.90;6.55;;;;;;;21.31;58.10;99959.22;5035446;28;20037;-68
2021/07/25 01:58:26;;;;;;;12.95;5.70;;;;;;;21.18;58.61;99967.44;5041351;28;20037;-68
2021/07/25 02:00:52;;;;;;;9.43;5.93;;;;;;;21.07;59.00;99968.19;5035503;28;20045;-68
2021/07/25 02:03:26;;;;;;;10.02;5.95;;;;;;;21.24;58.49;99966.56;5041832;28;20060;-68
2021/07/25 02:05:51;;;;;;;12.13;5.83;;;;;;;21.33;58.08;99965.22;5035366;28;20048;-68
2021/07/25 02:08:17;;;;;;;13.27;5.57;;;;;;;21.41;57.42;99957.88;5041417;28;20517;-68
2021/07/25 02:10:44;;;;;;;11.20;5.22;;;;;;;21.45;57.16;99969.84;5041448;28;20327;-68
2021/07/25 02:13:11;;;;;;;11.32;5.80;;;;;;;21.60;56.56;99973.75;5035400;28;20335;-68
2021/07/25 02:15:37;;;;;;;6.47;5.57;;;;;;;21.69;56.54;99971.56;5035428;28;20033;-68
2021/07/25 02:18:02;;;;;;;12.93;6.15;;;;;;;21.62;57.06;99971.66;5041395;28;20048;-68
2021/07/25 02:20:28;;;;;;;10.25;5.93;;;;;;;21.31;58.03;99967.31;5035183;28;20029;-68
2021/07/25 02:22:53;;;;;;;8.13;5.47;;;;;;;21.25;59.19;99973.59;5023674;28;20036;-68
2021/07/25 02:25:18;;;;;;;11.52;5.78;;;;;;;21.20;59.30;99972.59;5035250;28;20040;-68
2021/07/25 02:27:44;;;;;;;11.45;6.10;;;;;;;21.12;59.78;99971.03;5041204;28;20048;-68
2021/07/25 02:30:10;;;;;;;11.35;5.80;;;;;;;21.26;59.51;99977.13;5040939;28;20040;-67
2021/07/25 02:32:35;;;;;;;8.40;6.20;;;;;;;21.20;58.76;99975.28;5040972;28;20067;-68
2021/07/25 02:35:01;;;;;;;9.30;5.75;;;;;;;21.12;59.35;99973.72;5040659;28;20033;-68
2021/07/25 02:37:26;;;;;;;9.75;6.10;;;;;;;21.04;59.73;99979.41;5031745;28;20097;-68
2021/07/25 02:39:51;;;;;;;11.85;6.10;;;;;;;20.97;59.72;99981.34;5033817;28;20038;-68
2021/07/25 02:42:17;;;;;;;9.63;6.28;;;;;;;20.94;59.93;99976.41;5026634;28;20041;-68
2021/07/25 02:44:42;;;;;;;11.23;6.88;;;;;;;21.02;59.76;99979.63;5041006;28;20073;-68
2021/07/25 02:47:08;;;;;;;13.13;7.07;;;;;;;21.03;59.55;99985.84;5035235;28;20037;-68
2021/07/25 02:49:33;;;;;;;10.50;6.32;;;;;;;20.87;59.95;99984.56;5034397;28;20052;-68
2021/07/25 02:52:02;;;;;;;8.73;6.32;;;;;;;20.83;60.09;99974.47;5040896;28;20392;-68
2021/07/25 02:54:27;;;;;;;9.32;5.97;;;;;;;20.67;59.60;99982.03;5040391;28;20065;-68
2021/07/25 02:56:53;;;;;;;14.02;6.32;;;;;;;20.67;59.62;99986.59;5041118;28;20052;-68
2021/07/25 02:59:18;;;;;;;21.50;6.43;;;;;;;20.61;60.36;99974.03;5033608;28;20051;-68
2021/07/25 03:01:45;;;;;;;11.90;7.25;;;;;;;20.77;60.37;99986.09;5040623;28;20033;-68
2021/07/25 03:04:11;;;;;;;13.30;7.70;;;;;;;21.00;60.11;99992.50;5022978;28;20021;-68
2021/07/25 03:06:36;;;;;;;14.63;7.95;;;;;;;21.11;59.99;99984.72;5034481;28;20341;-68
2021/07/25 03:09:02;;;;;;;12.48;7.53;;;;;;;21.04;60.39;99985.63;5034345;28;20044;-67
2021/07/25 03:11:28;;;;;;;16.70;7.60;;;;;;;20.96;60.36;99985.09;5040249;28;20063;-68
2021/07/25 03:13:53;;;;;;;13.93;7.82;;;;;;;20.97;60.27;100001.03;5040031;28;20042;-68
2021/07/25 03:16:19;;;;;;;16.27;7.90;;;;;;;20.86;60.59;99995.56;5040187;28;20039;-68
2021/07/25 03:18:44;;;;;;;18.98;7.65;;;;;;;21.09;60.03;99993.03;5033535;28;20332;-68
2021/07/25 03:21:09;;;;;;;13.50;7.38;;;;;;;21.20;59.81;99996.84;5039773;28;20040;-68
2021/07/25 03:23:35;;;;;;;15.98;7.65;;;;;;;21.15;60.57;99988.59;5039730;28;20035;-68
2021/07/25 03:26:00;;;;;;;12.55;7.53;;;;;;;21.32;60.10;99995.88;5039348;28;20341;-68
2021/07/25 03:28:26;;;;;;;13.63;7.53;;;;;;;21.28;60.04;99988.47;5033859;28;20034;-68
2021/07/25 03:30:51;;;;;;;15.23;8.02;;;;;;;21.23;60.41;99985.66;5020890;28;20051;-68
2021/07/25 03:33:18;;;;;;;15.70;8.70;;;;;;;21.12;60.70;99968.34;5039141;28;20022;-68
2021/07/25 03:35:43;;;;;;;20.17;9.32;;;;;;;21.16;61.09;99988.38;5033354;28;20037;-68
2021/07/25 03:38:09;;;;;;;24.25;10.02;;;;;;;21.00;61.53;99989.81;5034704;28;20033;-68
2021/07/25 03:40:35;;;;;;;17.85;9.50;;;;;;;20.95;61.84;99984.28;5037415;28;20112;-68
2021/07/25 03:43:01;;;;;;;21.23;9.48;;;;;;;21.26;61.05;99988.72;5028827;28;20029;-68
2021/07/25 03:45:27;;;;;;;20.95;10.00;;;;;;;20.95;61.61;99988.84;5034119;28;20044;-68
2021/07/25 03:47:53;;;;;;;19.65;10.35;;;;;;;20.75;62.48;99983.63;5039736;28;20177;-68
2021/07/25 03:50:19;;;;;;;21.45;10.23;;;;;;;20.70;62.88;99991.53;5039526;28;20076;-68
2021/07/25 03:52:45;;;;;;;21.27;10.77;;;;;;;20.99;62.11;99990.03;5033364;28;20475;-68
2021/07/25 03:55:11;;;;;;;17.08;10.40;;;;;;;20.97;61.70;99989.44;5039628;28;20061;-68
2021/07/25 03:57:37;;;;;;;15.27;10.63;;;;;;;20.77;62.31;99988.78;5039419;28;20033;-68
2021/07/25 04:00:04;;;;;;;14.10;10.07;;;;;;;20.86;61.99;99988.31;5039629;28;20260;-68
2021/07/25 04:02:30;;;;;;;19.40;11.13;;;;;;;21.00;61.43;99988.97;5033861;28;20196;-68
2021/07/25 04:04:56;;;;;;;21.25;11.20;;;;;;;21.11;61.12;99995.50;5039104;28;20099;-68
2021/07/25 04:07:21;;;;;;;24.25;12.00;;;;;;;21.15;61.05;99996.69;5038974;28;20108;-68
2021/07/25 04:09:47;;;;;;;20.58;10.35;;;;;;;21.14;60.66;99995.03;5038868;28;20311;-68
2021/07/25 04:12:12;;;;;;;20.10;10.52;;;;;;;21.28;60.40;99993.88;5033061;28;20037;-68
2021/07/25 04:14:38;;;;;;;21.38;10.88;;;;;;;21.19;60.48;99990.63;5038964;28;20056;-68
2021/07/25 04:17:04;;;;;;;21.23;11.25;;;;;;;21.12;60.73;99997.13;5033510;28;20343;-68
2021/07/25 04:19:29;;;;;;;18.92;10.48;;;;;;;21.00;61.52;100005.13;5038919;28;20033;-68
2021/07/25 04:21:55;;;;;;;19.35;11.13;;;;;;;20.90;61.71;100011.03;5039480;28;20237;-68
2021/07/25 04:24:24;;;;;;;20.55;11.77;;;;;;;20.99;61.48;100017.78;5037174;28;20108;-68
2021/07/25 04:26:50;;;;;;;17.92;12.82;;;;;;;21.12;61.20;100013.28;5032325;28;20285;-68
2021/07/25 04:29:15;;;;;;;18.98;14.05;;;;;;;21.11;61.18;100015.16;5032320;28;20037;-68
2021/07/25 04:31:41;;;;;;;17.27;11.68;;;;;;;21.24;61.14;100017.75;5032685;28;20064;-68
2021/07/25 04:34:07;;;;;;;21.48;12.00;;;;;;;21.24;61.45;100011.53;5032502;28;20025;-68
2021/07/25 04:36:33;;;;;;;21.05;12.50;;;;;;;21.50;60.72;100016.59;5037056;28;20041;-68
2021/07/25 04:38:58;;;;;;;17.42;9.43;;;;;;;21.53;60.34;100016.13;5038673;28;20040;-68
2021/07/25 04:41:26;;;;;;;16.95;9.13;;;;;;;21.82;59.70;100024.47;5032426;28;20334;-68
2021/07/25 04:43:57;;;;;;;23.55;10.93;;;;;;;22.03;59.13;100020.50;5038036;28;20083;-67
2021/07/25 04:46:29;;;;;;;17.98;8.80;;;;;;;22.35;57.93;100018.34;5032294;28;20095;-68
2021/07/25 04:49:15;;;;;;;16.42;9.02;;;;;;;;;;5038041;28;20033;-68
2021/07/25 04:51:43;;;;;;;14.35;9.02;;;;;;;22.99;56.03;100019.38;5031656;28;20046;-68
2021/07/25 04:54:11;;;;;;;15.23;8.32;;;;;;;23.00;55.73;100031.81;5017735;28;20030;-68
2021/07/25 04:56:59;;;;;;;17.00;8.52;;;;;;;22.98;55.26;100034.75;5038811;28;20033;-68
2021/07/25 04:59:29;;;;;;;16.05;9.18;;;;;;;23.37;54.26;100038.56;5038545;28;20303;-68
2021/07/25 05:02:06;;;;;;;15.15;8.98;;;;;;;23.43;53.74;100039.50;5032565;28;20049;-68
2021/07/25 05:04:32;;;;;;;12.45;8.57;;;;;;;23.68;53.44;100031.09;5032687;28;20033;-68
2021/07/25 05:06:58;;;;;;;14.07;8.88;;;;;;;23.49;53.05;100020.44;5014787;28;20097;-68
2021/07/25 05:09:24;;;;;;;16.80;8.10;;;;;;;24.10;51.94;100032.47;5032717;28;20060;-68
2021/07/25 05:11:59;;;;;;;15.43;8.45;;;;;;;24.40;51.13;100029.50;5038379;28;20234;-68
2021/07/25 05:14:37;;;;;;;14.57;8.65;;;;;;;24.57;50.33;100034.91;5014634;28;20087;-68
2021/07/25 05:17:10;;;;;;;17.48;7.95;;;;;;;24.75;49.45;100021.09;5037513;28;20083;-68
2021/07/25 05:19:48;;;;;;;15.20;7.97;;;;;;;24.99;49.22;100031.78;5038346;28;20038;-68
2021/07/25 05:22:44;;;;;;;13.93;8.32;;;;;;;25.27;47.99;100028.09;5028602;28;20242;-68
2021/07/25 05:25:10;;;;;;;15.02;8.82;;;;;;;25.22;47.78;100028.03;5036212;28;20040;-68
2021/07/25 05:27:44;;;;;;;18.38;7.97;;;;;;;25.58;47.06;100027.41;5041837;28;20029;-68
2021/07/25 05:30:10;;;;;;;;;;;;;;;26.04;46.57;100025.25;5034602;28;20037;-68
2021/07/25 05:32:36;;;;;;;23.38;9.07;;;;;;;26.54;45.73;100024.06;5037786;28;19959;-68
2021/07/25 05:35:02;;;;;;;13.38;8.23;;;;;;;26.73;45.04;100028.84;5042537;28;20057;-68
2021/07/25 05:37:27;;;;;;;20.50;8.52;;;;;;;26.78;44.70;100025.34;5042256;28;20032;-68
2021/07/25 05:39:53;;;;;;;14.23;8.13;;;;;;;26.96;44.55;100022.19;5042167;28;20037;-68
2021/07/25 05:42:18;;;;;;;11.50;8.10;;;;;;;26.95;44.44;100025.16;5015487;28;20029;-68
2021/07/25 05:44:43;;;;;;;19.63;8.85;;;;;;;27.07;43.95;100022.31;5042069;28;20041;-68
2021/07/25 05:47:09;;;;;;;13.93;9.88;;;;;;;26.88;44.09;100024.56;5039435;28;20026;-68
2021/07/25 05:49:34;;;;;;;11.80;8.32;;;;;;;27.08;43.76;100021.22;5037799;28;20037;-68
2021/07/25 05:52:00;;;;;;;13.75;7.93;;;;;;;27.44;43.08;100031.19;5038833;28;20038;-68
2021/07/25 05:54:25;;;;;;;14.20;7.88;;;;;;;27.53;42.63;100026.88;5035003;28;20054;-68
2021/07/25 05:56:50;;;;;;;13.57;7.47;;;;;;;27.32;42.85;100028.69;5038905;28;20087;-68
2021/07/25 05:59:16;;;;;;;17.80;7.63;;;;;;;27.71;42.77;100032.94;5041802;28;20319;-68
2021/07/25 06:01:41;;;;;;;10.80;7.07;;;;;;;28.21;41.75;100026.78;5037083;28;20031;-68
2021/07/25 06:04:07;;;;;;;13.52;7.60;;;;;;;28.51;40.78;100024.09;5040339;28;20083;-68
2021/07/25 06:06:33;;;;;;;16.02;6.72;;;;;;;28.80;40.24;100020.78;5036185;28;20332;-68
2021/07/25 06:09:00;;;;;;;13.07;9.02;;;;;;;28.55;39.90;100029.81;5041113;28;20029;-69
2021/07/25 06:11:25;;;;;;;12.70;6.70;;;;;;;28.84;40.13;100041.81;5035242;28;20041;-68
2021/07/25 06:13:51;;;;;;;12.20;6.63;;;;;;;29.38;38.98;100041.13;5041332;28;20342;-68
2021/07/25 06:16:16;;;;;;;16.52;6.28;;;;;;;29.48;37.90;100043.84;5041432;28;20107;-68
2021/07/25 06:18:45;;;;;;;8.65;5.07;;;;;;;29.61;37.79;100031.50;5035401;28;20102;-69
2021/07/25 06:21:12;;;;;;;12.70;6.10;;;;;;;30.21;36.56;100029.56;5041248;28;20230;-68
2021/07/25 06:23:38;;;;;;;8.02;5.28;;;;;;;30.05;36.38;100028.81;5035367;28;20037;-68
2021/07/25 06:26:03;;;;;;;9.95;5.03;;;;;;;30.30;36.17;100032.50;5041349;28;20045;-69
2021/07/25 06:28:29;;;;;;;12.95;5.72;;;;;;;30.12;36.59;100021.13;5035003;28;20033;-68
2021/07/25 06:30:54;;;;;;;13.30;11.05;;;;;;;29.68;37.37;100020.28;5030567;28;20054;-68
2021/07/25 06:33:20;;;;;;;14.05;6.50;;;;;;;29.95;36.91;100028.03;5037287;28;20092;-68
2021/07/25 06:35:45;;;;;;;17.73;8.48;;;;;;;29.92;37.08;100023.16;5034706;28;20088;-69
2021/07/25 06:38:14;;;;;;;10.98;5.30;;;;;;;30.04;36.45;100032.66;5020159;28;20035;-68
2021/07/25 06:40:45;;;;;;;8.38;5.35;;;;;;;30.14;36.71;100029.84;5036946;28;20030;-68
2021/07/25 06:43:11;;;;;;;12.75;6.55;;;;;;;30.27;36.06;100036.59;5034412;28;20381;-68
2021/07/25 06:45:36;;;;;;;15.48;5.60;;;;;;;30.47;35.63;100032.91;5034328;28;20034;-68
2021/07/25 06:48:02;;;;;;;15.88;6.05;;;;;;;30.48;34.96;100027.16;5040245;28;20042;-69
2021/07/25 06:50:29;;;;;;;10.10;5.80;;;;;;;30.58;34.42;100026.25;5031436;28;20385;-68
2021/07/25 06:52:56;;;;;;;11.45;5.78;;;;;;;31.23;33.41;100024.00;5016760;28;20129;-68
2021/07/25 06:55:27;;;;;;;7.93;4.70;;;;;;;31.56;33.00;100027.69;5034489;28;20335;-69
2021/07/25 06:57:53;;;;;;;13.85;5.47;;;;;;;31.97;32.81;100033.44;5034433;28;20037;-68
2021/07/25 07:00:19;;;;;;;13.77;5.80;;;;;;;32.41;31.90;100024.03;5034496;28;20041;-69
2021/07/25 07:02:52;;;;;;;9.05;6.35;;;;;;;32.67;30.87;100030.69;5034501;28;20180;-68
2021/07/25 07:05:20;;;;;;;11.68;5.28;;;;;;;32.09;31.05;100024.75;5040319;28;20331;-68
2021/07/25 07:07:48;;;;;;;10.95;5.97;;;;;;;31.95;32.20;100032.91;5040496;28;20037;-69
2021/07/25 07:10:18;;;;;;;16.02;5.30;;;;;;;31.65;32.98;100027.84;5040538;28;20079;-69
2021/07/25 07:12:44;;;;;;;7.35;4.90;;;;;;;32.02;32.51;100033.34;5040197;28;20096;-68
2021/07/25 07:15:11;;;;;;;5.63;4.40;;;;;;;32.37;31.06;100023.81;5040494;28;20076;-69
2021/07/25 07:17:38;;;;;;;10.90;8.65;;;;;;;32.20;30.94;100028.97;5033353;28;20043;-68
2021/07/25 07:20:06;;;;;;;9.50;5.07;;;;;;;32.23;31.76;100033.84;5024933;28;20038;-69
2021/07/25 07:22:32;;;;;;;8.48;5.57;;;;;;;32.76;31.23;100033.56;5034045;28;20080;-68
2021/07/25 07:24:58;;;;;;;10.50;5.45;;;;;;;32.74;31.31;100037.72;5034276;28;20042;-68
2021/07/25 07:27:24;;;;;;;8.35;5.05;;;;;;;33.12;30.10;100030.97;5040133;28;20262;-69
2021/07/25 07:29:51;;;;;;;7.72;5.07;;;;;;;33.42;29.39;100017.81;5039976;28;20322;-69
2021/07/25 07:32:16;;;;;;;8.57;5.82;;;;;;;33.47;29.45;100017.69;5033967;28;20263;-68
2021/07/25 07:34:42;;;;;;;8.93;4.80;;;;;;;33.75;28.42;100018.47;5040007;28;20049;-69
2021/07/25 07:37:07;;;;;;;6.15;4.90;;;;;;;33.68;28.43;100020.81;5039446;28;20048;-68
2021/07/25 07:39:35;;;;;;;12.90;5.28;;;;;;;34.08;28.53;100016.34;5033706;28;20043;-69
2021/07/25 07:42:01;;;;;;;9.73;5.28;;;;;;;34.48;28.36;100020.06;5033594;28;20075;-69
2021/07/25 07:44:26;;;;;;;13.65;5.05;;;;;;;34.45;27.92;100021.50;5039467;28;20209;-69
2021/07/25 07:46:52;;;;;;;10.15;4.90;;;;;;;34.68;27.09;100022.28;5025749;28;20042;-69
2021/07/25 07:49:17;;;;;;;11.18;4.80;;;;;;;34.76;26.64;100020.72;5031430;28;20231;-68
2021/07/25 07:51:42;;;;;;;8.70;4.60;;;;;;;34.77;26.92;100025.09;5031918;28;20204;-69
2021/07/25 07:54:08;;;;;;;8.40;4.70;;;;;;;34.54;27.05;100025.13;5024694;28;20044;-69
2021/07/25 07:56:35;;;;;;;7.32;4.35;;;;;;;34.97;26.04;100029.25;5038768;28;20036;-69
2021/07/25 07:59:02;;;;;;;9.32;4.80;;;;;;;35.24;26.09;100022.72;5039046;28;20074;-69
2021/07/25 08:01:27;;;;;;;12.68;4.70;;;;;;;35.41;25.91;100018.13;5039180;28;20028;-69
2021/07/25 08:03:53;;;;;;;11.02;4.57;;;;;;;35.44;25.86;100023.00;5038371;28;20038;-69
2021/07/25 08:06:18;;;;;;;9.38;4.47;;;;;;;35.00;25.72;100014.84;5033235;28;20033;-69
2021/07/25 08:08:44;;;;;;;7.78;4.20;;;;;;;34.92;25.59;100015.63;5038849;28;20037;-69
2021/07/25 08:11:09;;;;;;;8.35;4.22;;;;;;;34.83;25.26;100019.16;5025991;28;20238;-69
2021/07/25 08:13:34;;;;;;;8.25;3.95;;;;;;;35.15;24.22;100018.00;5039809;28;20017;-69
2021/07/25 08:16:00;;;;;;;10.55;4.00;;;;;;;35.53;23.32;100016.69;5033242;28;20306;-69
2021/07/25 08:18:25;;;;;;;7.80;4.05;;;;;;;35.27;24.12;100002.81;5039184;28;20029;-69
2021/07/25 08:20:51;;;;;;;10.27;4.35;;;;;;;34.87;25.14;100011.09;5029675;28;20301;-69
2021/07/25 08:23:16;;;;;;;9.60;3.47;;;;;;;34.54;25.34;100007.81;5018699;28;20254;-68
2021/07/25 08:25:41;;;;;;;15.43;4.38;;;;;;;34.47;25.55;100005.50;5035742;28;20323;-69
2021/07/25 08:28:07;;;;;;;9.50;3.80;;;;;;;34.92;24.29;100004.63;5021022;28;20056;-69
2021/07/25 08:30:32;;;;;;;7.57;3.60;;;;;;;35.25;23.81;100005.88;5035650;28;20038;-68
2021/07/25 08:32:59;;;;;;;7.07;3.60;;;;;;;35.51;23.43;100004.03;5032383;28;20025;-69
2021/07/25 08:35:25;;;;;;;5.40;3.25;;;;;;;34.68;23.16;100010.47;5032414;28;20037;-69
2021/07/25 08:37:52;;;;;;;5.05;3.15;;;;;;;34.97;22.87;99999.78;5032344;28;20026;-68
2021/07/25 08:40:22;;;;;;;9.35;3.65;;;;;;;35.11;23.17;100003.25;5038519;28;20029;-69
2021/07/25 08:43:02;;;;;;;4.93;3.88;;;;;;;34.15;24.25;100008.47;5032287;28;20038;-69
2021/07/25 08:45:28;;;;;;;8.00;3.50;;;;;;;34.18;23.52;100011.41;5032903;28;20048;-69
2021/07/25 08:48:03;;;;;;;7.80;3.17;;;;;;;34.31;24.40;100009.72;5032407;28;20041;-68
2021/07/25 08:50:31;;;;;;;8.27;4.00;;;;;;;34.42;23.80;100013.88;5038452;28;20120;-68
2021/07/25 08:53:03;;;;;;;9.52;3.63;;;;;;;33.54;24.61;100007.94;5014899;28;20037;-69
2021/07/25 08:55:28;;;;;;;5.18;3.58;;;;;;;34.01;24.69;100004.97;5038685;28;20096;-69
2021/07/25 08:57:54;;;;;;;6.25;3.67;;;;;;;34.10;24.31;100006.66;5037976;28;20033;-68
2021/07/25 09:00:22;;;;;;;7.60;3.60;;;;;;;33.81;24.91;100000.75;5032293;28;20025;-68
2021/07/25 09:02:49;;;;;;;8.60;3.90;;;;;;;32.99;25.55;99999.69;5038690;28;20029;-68
2021/07/25 09:05:15;;;;;;;9.80;3.60;;;;;;;32.50;26.21;100000.28;5029061;28;20045;-68
2021/07/25 09:07:42;;;;;;;7.38;3.35;;;;;;;32.97;26.78;99999.16;5038418;28;20060;-69
2021/07/25 09:10:15;;;;;;;7.75;3.63;;;;;;;33.16;26.38;99995.50;5038835;28;20199;-68
2021/07/25 09:12:41;;;;;;;11.10;3.78;;;;;;;32.87;26.49;99996.63;5014937;28;20437;-68
2021/07/25 09:15:15;;;;;;;5.10;3.45;;;;;;;32.24;27.02;100004.56;5032751;28;20029;-69
2021/07/25 09:17:41;;;;;;;7.75;3.50;;;;;;;32.14;26.78;100001.94;5019175;28;20331;-68
2021/07/25 09:20:20;;;;;;;9.18;3.45;;;;;;;32.79;25.65;100002.00;5038491;28;20094;-69
2021/07/25 09:22:48;;;;;;;5.13;3.13;;;;;;;32.96;26.84;100004.97;5032312;28;20076;-69
2021/07/25 09:25:20;;;;;;;7.65;3.80;;;;;;;31.66;28.55;100004.84;5032887;28;20189;-68
2021/07/25 09:28:05;;;;;;;7.63;3.88;;;;;;;31.43;28.00;99998.31;5038249;28;20067;-68
2021/07/25 09:30:31;;;;;;;5.50;3.70;;;;;;;30.91;30.05;100008.16;5019646;28;20046;-68
2021/07/25 09:32:57;;;;;;;6.00;3.50;;;;;;;31.58;27.56;99998.09;5021022;28;20118;-69
2021/07/25 09:35:31;;;;;;;6.13;3.72;;;;;;;32.07;26.88;99994.94;5038638;28;20325;-68
2021/07/25 09:38:17;;;;;;;8.27;3.83;;;;;;;32.89;26.30;99991.66;5035225;28;20400;-69
2021/07/25 09:40:44;;;;;;;5.68;3.58;;;;;;;33.02;26.04;99984.53;5037951;28;20057;-69
2021/07/25 09:43:19;;;;;;;6.55;3.40;;;;;;;32.78;26.79;99990.22;5038035;28;20034;-68
2021/07/25 09:45:47;;;;;;;9.18;3.80;;;;;;;31.50;26.92;99987.00;5038148;28;20227;-69
2021/07/25 09:48:13;;;;;;;17.35;4.03;;;;;;;31.48;28.04;99991.94;5038323;28;20064;-68
2021/07/25 09:50:39;;;;;;;9.65;3.80;;;;;;;31.24;27.71;99984.59;5032199;28;20045;-68
2021/07/25 09:53:04;;;;;;;5.35;3.50;;;;;;;31.51;26.82;99970.28;5037867;28;20088;-68
2021/07/25 09:55:31;;;;;;;6.07;4.15;;;;;;;31.86;26.79;99971.72;5032295;28;20045;-68
2021/07/25 09:57:56;;;;;;;6.65;3.88;;;;;;;31.91;27.59;99971.63;5038245;28;20033;-69
2021/07/25 10:00:22;;;;;;;10.70;4.05;;;;;;;32.15;26.89;99971.50;5031951;28;20044;-69
2021/07/25 10:02:49;;;;;;;8.00;3.60;;;;;;;32.01;27.21;99968.72;5032122;28;20101;-68
2021/07/25 10:05:15;;;;;;;5.95;3.65;;;;;;;31.39;26.60;99973.44;5031931;28;20038;-68
2021/07/25 10:07:42;;;;;;;6.57;3.90;;;;;;;31.36;27.61;99965.00;5032498;28;20084;-68
2021/07/25 10:10:11;;;;;;;7.93;3.63;;;;;;;31.41;27.14;99973.16;5031434;28;20092;-70
2021/07/25 10:12:38;;;;;;;6.32;3.47;;;;;;;31.38;26.90;99960.06;5041699;28;20065;-70
2021/07/25 10:15:10;;;;;;;8.50;4.20;;;;;;;31.57;27.52;99958.16;5041287;28;20033;-71
2021/07/25 10:17:37;;;;;;;9.38;3.83;;;;;;;31.79;26.96;99952.09;5025971;28;20049;-70
2021/07/25 10:20:06;;;;;;;7.65;3.88;;;;;;;31.77;27.42;99950.78;5035209;28;20041;-70
2021/07/25 10:22:33;;;;;;;9.52;3.85;;;;;;;31.21;27.40;99948.78;5035343;28;20053;-71
2021/07/25 10:25:00;;;;;;;9.30;3.40;;;;;;;31.38;27.79;99944.47;5041427;28;20051;-70
2021/07/25 10:27:27;;;;;;;10.02;3.65;;;;;;;31.78;27.40;99949.66;5017888;28;20263;-70
2021/07/25 10:29:53;;;;;;;9.02;4.10;;;;;;;31.86;27.70;99938.03;5021494;28;20071;-73
2021/07/25 10:32:20;;;;;;;6.43;3.63;;;;;;;31.87;27.81;99936.94;5040953;28;20033;-70
2021/07/25 10:34:47;;;;;;;10.32;3.63;;;;;;;31.29;28.49;99942.69;5017601;28;20076;-70
2021/07/25 10:37:13;;;;;;;8.65;3.85;;;;;;;30.93;27.67;99932.13;5041270;28;20040;-73
2021/07/25 10:39:47;;;;;;;5.63;3.83;;;;;;;31.08;27.72;99931.13;5040982;28;20108;-70
2021/07/25 10:42:17;;;;;;;;;;;;;;;30.88;30.00;99937.66;5035765;28;20033;-70
2021/07/25 10:44:43;;;;;;;6.18;3.63;;;;;;;30.61;30.14;99915.56;5040734;28;19925;-73
2021/07/25 10:47:30;;;;;;;5.30;3.55;;;;;;;30.50;29.04;99936.69;5040501;28;20097;-70
2021/07/25 10:50:06;;;;;;;8.07;3.63;;;;;;;30.35;30.42;99940.38;5025022;28;20037;-73
2021/07/25 10:52:54;;;;;;;6.55;3.20;;;;;;;30.28;29.77;99934.44;5025215;28;20351;-70
2021/07/25 10:55:43;;;;;;;6.32;3.67;;;;;;;29.99;29.25;99930.81;5039998;28;20120;-71
2021/07/25 10:58:13;;;;;;;8.50;3.58;;;;;;;30.30;30.59;99934.97;5034852;28;20322;-72
2021/07/25 11:00:42;;;;;;;5.75;3.22;;;;;;;30.52;28.52;99929.00;5041120;28;20036;-70
2021/07/25 11:03:08;;;;;;;7.65;3.70;;;;;;;30.66;28.64;99923.69;5040602;28;20033;-72
2021/07/25 11:05:53;;;;;;;8.15;3.58;;;;;;;30.53;29.03;99921.63;5040705;28;20064;-70
2021/07/25 11:08:33;;;;;;;7.25;4.07;;;;;;;30.53;28.02;99924.34;5040170;28;20043;-70
2021/07/25 11:10:58;;;;;;;5.28;4.03;;;;;;;30.77;28.08;99925.22;5039925;28;20040;-73
2021/07/25 11:13:56;;;;;;;6.93;3.72;;;;;;;31.16;27.57;99914.09;5039758;28;20022;-70
2021/07/25 11:16:27;;;;;;;9.77;3.40;;;;;;;31.27;26.91;99917.53;4988485;28;20053;-70
2021/07/25 11:18:57;;;;;;;5.70;3.80;;;;;;;31.36;26.67;99918.50;5038904;28;20133;-73
2021/07/25 11:21:43;;;;;;;5.45;3.50;;;;;;;31.62;26.87;99908.81;5040075;28;20030;-70
2021/07/25 11:24:23;;;;;;;6.28;3.65;;;;;;;31.72;26.78;99910.59;5040514;28;20080;-70
2021/07/25 11:26:51;;;;;;;6.85;3.55;;;;;;;31.89;25.94;99907.31;5040098;28;20335;-73
2021/07/25 11:29:23;;;;;;;7.50;3.30;;;;;;;32.13;25.84;99904.44;5021665;28;20052;-71